Latest Weather Observations for Cocos Island

IDW60801

Issued at 6:05 pm WST Sunday 31 August 2014 (issued every 30 minutes, with the page automatically refreshed every 10 minutes)

About weather observations | Map of weather stations | Latest weather observations for WA | Other Formats
Station Details ID: 200284 Name: COCOS ISLAND AIRPORT Lat: -12.19 Lon: 96.83 Height: 3.0 m
Data from the previous 72 hours. | See also: Recent months at Cocos Island
Date/Time
WST
Temp
°C
App
Temp
°C
Dew
Point
Rel
Hum
%
Delta-T
°C
Wind Press
QNH
hPa
Press
MSL
hPa
Rain
since 9 am
mm
Dir
 
Spd
km/h
Gust
km/h
Spd
kts
Gust
kts
31/06:00pm 28.1 28.4 23.0 74 3.5 NE 26 32 14 17 1008.6 - 0.0
31/05:30pm 28.2 28.0 22.8 72 3.7 NE 28 32 15 17 1008.8 - 0.0
31/05:00pm 28.2 28.0 22.8 72 3.7 NE 28 32 15 17 1009.0 1009.0 0.0
31/04:59pm 28.4 28.6 22.8 71 3.8 NE 26 32 14 17 1009.0 - 0.0
31/04:36pm 28.4 28.2 22.8 71 3.8 NE 28 33 15 18 1009.1 - 0.0
31/04:30pm 28.4 28.4 23.1 73 3.6 NE 28 33 15 18 1009.1 - 0.0
31/04:00pm 28.4 27.8 21.9 68 4.4 NE 28 33 15 18 1009.4 - 0.0
31/03:30pm 28.7 28.9 23.5 73 3.6 ENE 28 33 15 18 1009.5 - 0.0
31/03:00pm 28.7 28.2 22.8 70 4.0 ENE 30 35 16 19 1009.8 - 0.0
31/02:30pm 28.5 28.2 22.6 70 4.0 ENE 28 35 15 19 1010.2 - 0.0
31/02:00pm 28.5 27.6 22.1 68 4.3 ENE 30 35 16 19 1010.6 1010.6 0.0
31/01:30pm 28.3 27.5 22.4 70 4.0 ENE 30 33 16 18 1010.9 - 0.0
31/01:00pm 28.1 27.2 22.2 70 4.0 ENE 30 35 16 19 1011.1 - 0.0
31/12:30pm 27.8 27.2 22.0 70 3.9 E 28 32 15 17 1011.8 - 0.0
31/12:00pm 28.0 27.5 22.1 70 4.0 ENE 28 33 15 18 1011.9 - 0.0
31/11:30am 27.5 27.2 22.5 74 3.4 ENE 28 35 15 19 1011.9 - 0.0
31/11:00am 27.4 26.0 21.9 72 3.7 ENE 32 37 17 20 1011.9 1011.9 0.0
31/10:30am 27.1 25.7 21.9 73 3.5 ENE 32 37 17 20 1011.8 - 0.0
31/10:00am 27.0 25.9 21.8 73 3.5 E 30 35 16 19 1011.6 - 0.0
31/09:30am 26.7 24.9 21.1 71 3.7 E 32 37 17 20 1011.3 - 0.0
31/09:00am 26.6 24.7 21.0 71 3.7 E 32 39 17 21 1011.0 - 0.0
31/08:30am 26.3 24.9 21.2 73 3.4 E 30 39 16 21 1010.9 - 0.0
31/08:00am 26.0 25.0 21.3 75 3.1 E 28 33 15 18 1010.7 1010.7 0.0
31/07:30am 25.9 25.0 21.5 76 2.9 E 28 33 15 18 1010.8 - 0.0
31/07:00am 25.8 25.4 21.6 77 2.8 E 26 30 14 16 1010.8 - 0.0
31/06:30am 25.8 26.0 21.3 76 3.0 E 22 28 12 15 1010.7 - 0.0
31/06:00am 25.9 25.8 21.4 76 3.0 E 24 28 13 15 1010.7 - 0.0
31/05:30am 26.0 25.4 21.2 75 3.2 E 26 32 14 17 1010.7 - 0.0
31/05:00am 25.9 26.4 21.1 75 3.2 E 20 28 11 15 1010.8 1010.8 0.0
31/04:30am 25.9 25.8 21.5 76 2.9 E 24 32 13 17 1010.7 - 0.0
31/04:00am 26.0 25.1 21.5 76 3.0 E 28 35 15 19 1010.9 - 0.0
31/03:30am 26.2 26.2 21.7 76 3.0 E 24 33 13 18 1011.2 - 0.0
31/03:00am 26.3 26.3 21.6 75 3.1 E 24 35 13 19 1011.4 - 0.0
31/02:30am 26.3 26.6 21.5 75 3.2 E 22 30 12 16 1011.8 - 0.0
31/02:00am 26.4 25.9 21.4 74 3.3 E 26 33 14 18 1012.0 1012.0 0.0
31/01:30am 26.5 25.9 21.9 76 3.1 E 28 35 15 19 1012.3 - 0.0
31/01:00am 26.5 26.0 21.5 74 3.3 E 26 37 14 20 1012.6 - 0.0
31/12:30am 26.6 25.9 21.0 71 3.7 E 26 35 14 19 1012.7 - 0.0
31/12:00am 26.6 25.6 21.3 72 3.5 E 28 35 15 19 1012.7 - 0.0
 
Date/Time
WST
Temp
°C
App
Temp
°C
Dew
Point
Rel
Hum
%
Delta-T
°C
Wind Press
QNH
hPa
Press
MSL
hPa
Rain
since 9 am
mm
Dir
 
Spd
km/h
Gust
km/h
Spd
kts
Gust
kts
30/11:30pm 26.7 26.0 21.8 74 3.3 E 28 35 15 19 1012.7 - 0.0
30/11:00pm 26.7 26.4 21.8 74 3.3 ESE 26 35 14 19 1012.7 1012.7 0.0
30/10:30pm 26.9 26.7 22.0 74 3.3 E 26 35 14 19 1012.8 - 0.0
30/10:00pm 26.9 26.7 22.1 75 3.2 E 26 35 14 19 1012.6 - 0.0
30/09:30pm 27.0 26.7 21.9 73 3.4 E 26 33 14 18 1012.5 - 0.0
30/09:00pm 26.9 27.1 22.1 75 3.2 ESE 24 32 13 17 1012.4 - 0.0
30/08:30pm 27.0 27.2 22.1 74 3.3 E 24 32 13 17 1012.1 - 0.0
30/08:00pm 27.1 27.6 22.7 77 3.0 E 24 32 13 17 1012.0 1012.0 0.0
30/07:30pm 27.3 27.8 22.7 76 3.1 E 24 32 13 17 1012.0 - 0.0
30/07:00pm 27.3 27.0 21.9 72 3.6 E 26 32 14 17 1011.6 - 0.0
30/06:30pm 27.6 27.3 21.8 70 3.9 E 26 32 14 17 1011.4 - 0.0
30/06:00pm 28.1 27.2 22.2 70 4.0 E 30 39 16 21 1011.2 - 0.0
30/05:30pm 28.0 26.7 22.1 70 4.0 E 32 41 17 22 1010.8 - 0.0
30/05:00pm 28.2 27.2 22.6 71 3.8 E 32 39 17 21 1010.6 1010.6 0.0
30/04:30pm 28.4 27.0 21.9 68 4.4 E 32 39 17 21 1010.6 - 0.0
30/04:00pm 28.5 27.6 22.8 71 3.9 E 32 39 17 21 1010.7 - 0.0
30/03:30pm 28.6 28.0 22.7 70 4.0 E 30 39 16 21 1010.9 - 0.0
30/03:00pm 28.5 28.7 22.8 71 3.9 E 26 35 14 19 1011.3 - 0.0
30/02:30pm 28.4 28.2 22.8 71 3.8 E 28 41 15 22 1011.6 - 0.0
30/02:00pm 28.4 27.6 23.1 73 3.6 E 32 39 17 21 1012.0 1012.0 0.0
30/01:30pm 28.3 27.3 22.7 71 3.8 E 32 39 17 21 1012.2 - 0.0
30/01:00pm 27.8 27.0 23.0 75 3.3 E 32 41 17 22 1012.4 - 0.0
30/12:30pm 28.1 26.7 22.2 70 4.0 E 33 44 18 24 1012.5 - 0.0
30/12:00pm 27.9 26.5 22.3 71 3.8 E 33 44 18 24 1012.8 - 0.0
30/11:30am 27.9 27.3 22.7 73 3.5 E 30 39 16 21 1013.0 - 0.0
30/11:00am 27.7 26.7 22.7 74 3.4 E 32 39 17 21 1013.1 1013.1 0.0
30/10:30am 27.4 26.3 22.4 74 3.4 E 32 39 17 21 1013.1 - 0.0
30/10:00am 27.4 26.3 22.4 74 3.4 E 32 39 17 21 1012.8 - 0.0
30/09:30am 27.0 25.8 22.2 75 3.2 E 32 39 17 21 1012.5 - 0.0
30/09:00am 26.8 25.8 22.7 78 2.8 E 32 39 17 21 1012.4 - 0.0
30/08:30am 26.5 25.1 22.3 78 2.8 E 33 43 18 23 1012.1 - 0.0
30/08:00am 26.3 25.8 22.8 81 2.4 E 30 37 16 20 1012.0 1012.0 0.0
30/07:30am 26.3 24.7 21.6 75 3.1 E 32 41 17 22 1011.7 - 0.0
30/07:00am 26.2 25.9 22.5 80 2.5 E 28 33 15 18 1011.5 - 0.0
30/06:30am 26.2 26.1 22.3 79 2.6 E 26 35 14 19 1011.3 - 0.0
30/06:00am 26.2 26.4 22.8 81 2.3 E 26 35 14 19 1011.3 - 0.0
30/05:30am 26.3 26.0 22.6 80 2.5 E 28 33 15 18 1011.3 - 0.0
30/05:00am 26.3 25.8 22.8 81 2.4 E 30 37 16 20 1011.4 1011.4 0.0
30/04:30am 26.3 26.2 22.9 81 2.3 E 28 35 15 19 1011.4 - 0.0
30/04:00am 26.5 25.7 23.0 81 2.4 E 32 39 17 21 1011.5 - 0.0
30/03:30am 26.6 26.2 23.1 81 2.4 E 30 35 16 19 1011.5 - 0.0
30/03:00am 26.6 25.7 23.1 81 2.4 E 33 39 18 21 1011.8 - 0.0
30/02:30am 26.8 26.0 23.1 80 2.5 E 32 37 17 20 1012.0 - 0.0
30/02:00am 26.8 26.7 23.6 82 2.2 ENE 30 35 16 19 1012.3 1012.3 0.0
30/01:30am 26.9 26.6 23.2 80 2.5 E 30 35 16 19 1012.4 - 0.0
30/01:00am 27.0 26.3 23.2 80 2.6 E 32 39 17 21 1012.5 - 0.0
30/12:30am 27.1 26.3 23.1 79 2.7 E 32 37 17 20 1012.5 - 0.0
30/12:00am 27.1 26.3 23.4 80 2.5 E 33 37 18 20 1012.6 - 0.0
 
Date/Time
WST
Temp
°C
App
Temp
°C
Dew
Point
Rel
Hum
%
Delta-T
°C
Wind Press
QNH
hPa
Press
MSL
hPa
Rain
since 9 am
mm
Dir
 
Spd
km/h
Gust
km/h
Spd
kts
Gust
kts
29/11:30pm 27.2 26.5 23.2 79 2.7 E 32 39 17 21 1012.7 - 0.0
29/11:00pm 27.3 26.5 23.3 79 2.7 E 33 39 18 21 1012.5 1012.5 0.0
29/10:30pm 27.3 26.5 23.3 79 2.7 E 33 37 18 20 1012.6 - 0.0
29/10:00pm 27.3 26.5 23.0 77 2.9 E 32 39 17 21 1012.5 - 0.0
29/09:30pm 27.3 26.6 23.2 78 2.8 E 32 39 17 21 1012.3 - 0.0
29/09:00pm 27.3 26.6 23.2 78 2.8 E 32 35 17 19 1012.0 - 0.0
29/08:30pm 27.4 26.9 23.5 79 2.7 E 32 35 17 19 1011.7 - 0.0
29/08:00pm 27.5 26.9 23.4 78 2.8 E 32 37 17 20 1011.4 1011.4 0.0
29/07:30pm 27.6 26.3 23.1 76 3.1 ENE 35 41 19 22 1011.3 - 0.0
29/07:00pm 27.7 26.6 22.8 74 3.3 E 33 39 18 21 1011.1 - 0.0
29/06:30pm 27.8 26.4 23.0 75 3.3 E 35 41 19 22 1010.8 - 0.0
29/06:00pm 28.0 27.3 23.2 75 3.3 E 32 39 17 21 1010.6 - 0.0
29/05:30pm 28.4 28.1 23.8 76 3.2 E 32 39 17 21 1010.4 - 0.0
29/05:00pm 28.3 27.5 23.3 74 3.4 E 33 41 18 22 1010.3 1010.3 0.0
29/04:30pm 28.3 27.0 23.2 74 3.5 E 35 41 19 22 1010.3 - 0.0
29/04:00pm 28.4 28.1 23.8 76 3.2 E 32 39 17 21 1010.2 - 0.0
29/03:30pm 28.5 28.1 23.7 75 3.3 E 32 39 17 21 1010.5 - 0.0
29/03:00pm 28.7 28.0 23.6 74 3.5 E 33 39 18 21 1010.7 - 0.0
29/02:30pm 28.8 27.6 23.3 72 3.8 E 35 43 19 23 1011.0 - 0.0
29/02:00pm 28.4 27.5 23.1 73 3.6 E 33 43 18 23 1011.4 1011.4 0.0
29/01:30pm 28.3 27.4 23.2 74 3.5 E 33 41 18 22 1011.7 - 0.0
29/01:00pm 28.1 27.1 23.0 74 3.5 E 33 39 18 21 1012.1 - 0.0
29/12:30pm 27.9 26.1 22.3 71 3.8 E 35 39 19 21 1012.4 - 0.0
29/12:00pm 27.8 26.1 22.5 73 3.6 E 35 43 19 23 1012.7 - 0.0
29/11:30am 27.7 26.5 22.7 74 3.4 E 33 41 18 22 1012.9 - 0.0
29/11:00am 27.7 26.2 22.0 71 3.8 E 33 41 18 22 1012.8 1012.8 15.2
29/10:30am 27.4 26.2 22.2 73 3.5 E 32 39 17 21 1012.8 - 15.2
29/10:00am 27.3 26.1 22.3 74 3.4 E 32 39 17 21 1012.6 - 15.0
29/09:30am 27.1 26.3 22.4 75 3.2 E 30 41 16 22 1012.5 - 15.0
29/09:00am 26.8 25.9 22.8 79 2.7 E 32 37 17 20 1012.4 - 15.0
29/08:30am 26.7 25.6 22.4 77 2.9 E 32 39 17 21 1012.2 - 15.0
29/08:00am 26.6 25.3 22.1 76 3.0 E 32 37 17 20 1011.8 1011.8 15.0
29/07:30am 26.4 25.9 22.9 81 2.4 E 30 35 16 19 1011.6 - 15.0
29/07:00am 26.3 26.2 22.9 81 2.3 E 28 35 15 19 1011.5 - 15.0
29/06:30am 26.3 25.7 22.6 80 2.5 E 30 35 16 19 1011.3 - 15.0
29/06:00am 26.3 26.5 22.8 81 2.4 E 26 32 14 17 1011.2 - 15.0
29/05:30am 26.2 26.8 22.8 81 2.3 E 24 28 13 15 1011.1 - 15.0
29/05:00am 26.2 26.9 23.0 82 2.2 E 24 30 13 16 1011.1 1011.1 15.0
29/04:30am 25.9 27.5 22.8 83 2.1 E 19 22 10 12 1011.3 - 15.0
29/04:00am 26.2 26.7 22.6 80 2.4 E 24 30 13 16 1011.4 - 15.0
29/03:30am 26.4 26.4 22.4 78 2.7 E 26 32 14 17 1011.7 - 15.0
29/03:00am 26.4 26.8 22.5 79 2.6 E 24 32 13 17 1011.8 - 15.0
29/02:30am 26.4 26.6 22.7 80 2.5 E 26 32 14 17 1011.9 - 15.0
29/02:00am 26.5 26.2 22.5 78 2.7 E 28 33 15 18 1012.2 1012.2 15.0
29/01:30am 26.4 27.6 23.2 82 2.2 E 22 28 12 15 1012.6 - 15.0
29/01:00am 25.9 27.5 23.3 85 1.8 ESE 20 26 11 14 1012.9 - 15.0
29/12:30am 25.9 26.8 23.4 86 1.7 ESE 24 30 13 16 1012.9 - 15.0
29/12:00am 26.1 27.3 22.5 80 2.4 ESE 20 28 11 15 1012.9 - 15.0
 
Date/Time
WST
Temp
°C
App
Temp
°C
Dew
Point
Rel
Hum
%
Delta-T
°C
Wind Press
QNH
hPa
Press
MSL
hPa
Rain
since 9 am
mm
Dir
 
Spd
km/h
Gust
km/h
Spd
kts
Gust
kts
28/11:46pm 25.6 27.4 23.5 88 1.4 E 20 26 11 14 1012.8 - 15.0
28/11:30pm 24.9 24.9 22.4 86 1.7 E 26 33 14 18 1012.7 - 15.0
28/11:21pm 24.7 23.1 21.5 82 2.1 E 32 41 17 22 1012.8 - 14.6
28/11:00pm 25.8 24.1 22.4 81 2.3 E 35 41 19 22 1012.7 1012.7 14.6
28/10:30pm 25.5 27.2 24.0 91 1.0 SE 22 28 12 15 1012.8 - 14.6
28/10:00pm 25.8 26.8 22.8 83 2.0 ESE 22 28 12 15 1012.7 - 14.6
28/09:30pm 25.6 27.3 22.3 82 2.2 ESE 17 22 9 12 1012.6 - 14.6
28/09:00pm 25.3 26.0 22.2 83 2.1 ESE 22 28 12 15 1012.2 - 14.6
28/08:30pm 24.7 25.0 22.2 86 1.7 SE 24 32 13 17 1012.1 - 14.6
28/08:00pm 24.3 26.2 21.3 83 2.0 ENE 13 15 7 8 1011.8 1011.8 14.6
28/07:51pm 23.8 24.6 21.4 86 1.6 ESE 19 26 10 14 1011.7 - 14.6

Other Formats:

Comma delimited format used in spreadsheet applications
http://www.bom.gov.au/fwo/IDW60801/IDW60801.96996.axf

JavaScript Object Notation format (JSON) in row-major order
http://www.bom.gov.au/fwo/IDW60801/IDW60801.96996.json